• Join FlightAware (Why Join?)
  • Login
  • US Flag 
09:52AM EDT


 

Airport Tracker/Info


-or-


 

Live Flight TrackerFlight Track Log ✈ SWA118 ✈ 03-Nov-2013 ✈ KBWI - KRDU

Flight Track Log - Related Links

Times and Time Zones

All times are in EST time to prevent confusion due to time zone crossing. See the SWA118 flight status page for this flight to view local times or setup timezone preferences in your user account.

Time Position Orientation Groundspeed Altitude Reporting Facility
EST Latitude Longitude Course Direction KTS MPH feet Rate Location/Type
11:17PM 39.1500 -76.6167 238° Southwest 197 227 2,800  Level Potomac TRACON
11:19PM 39.0369 -76.5028 142° Southeast 248 285 7,400 2,640 Climbing Washington Center
11:20PM 38.9597 -76.5394 200° South 248 285 10,500 2,520 Climbing Washington Center
11:21PM 38.8739 -76.5808 201° Southwest 282 325 12,400 2,220 Climbing Washington Center
11:22PM 38.6797 -77.0007 238° Southwest  Level Estimated
11:22PM 38.7797 -76.6222 199° South 329 379 15,000  Level Washington Center
11:23PM 38.6814 -76.6686 200° South 358 412 17,600 2,220 Climbing Washington Center
11:24PM 38.5808 -76.7178 201° Southwest 381 438 19,600 2,160 Climbing Washington Center
11:25PM 38.4642 -76.7161 179° South 399 459 22,000 1,200 Climbing Washington Center
11:26PM 38.3469 -76.7486 192° South 413 475 22,000  Level Washington Center
11:27PM 38.2381 -76.7839 194° South 421 484 22,000  Level Washington Center
11:28PM 38.1336 -76.8219 196° South 429 494 22,000  Level Washington Center
11:29PM 38.0225 -76.8650 197° South 429 494 22,000  Level Washington Center
11:30PM 37.9117 -76.9053 196° South 423 487 22,000  Level Washington Center
11:31PM 37.7986 -76.9453 196° South 423 487 22,000  Level Washington Center
11:32PM 37.6875 -76.9853 196° South 423 487 22,000  Level Washington Center
11:33PM 37.5744 -77.0278 197° South 423 487 22,000  Level Washington Center
11:34PM 37.4633 -77.0675 196° South 423 487 22,000  Level Washington Center
11:35PM 37.3522 -77.1125 198° South 417 480 22,000  Level Washington Center
11:36PM 37.2450 -77.1808 207° Southwest 405 466 22,000  Level Washington Center
11:37PM 37.1564 -77.2622 216° Southwest 399 459 22,000  Level Washington Center
11:38PM 37.0675 -77.3464 217° Southwest 399 459 22,000  Level Washington Center
11:39PM 36.9786 -77.4275 216° Southwest 404 465 22,000  Level Washington Center
11:40PM 36.8875 -77.5108 216° Southwest 409 471 22,000  Level Washington Center
11:41PM 36.7986 -77.5944 217° Southwest 409 471 22,000  Level Washington Center
11:42PM 36.7097 -77.6775 217° Southwest 409 471 22,000  Level Washington Center
11:43PM 36.6206 -77.7606 217° Southwest 409 471 22,000 -180 Level Washington Center
11:44PM 36.5292 -77.8408 215° Southwest 409 471 21,700 -780 Descending Washington Center
11:45PM 36.4444 -77.9208 217° Southwest 404 465 20,500 -1,200 Descending Washington Center
11:45PM 36.4231 -77.9411 217° Southwest 381 438 20,200 -1,020 Descending Washington Center
11:45PM 36.4167 -77.9458 211° Southwest 379 436 20,100 -1,980 Descending Washington Center
11:46PM 36.3636 -77.9933 216° Southwest 385 443 18,800 -1,920 Descending Washington Center
11:46PM 36.3275 -78.0258 216° Southwest 365 420 18,100 -1,680 Descending Washington Center
11:47PM 36.2828 -78.0681 217° Southwest 374 430 17,100 -1,980 Descending Washington Center
11:47PM 36.2467 -78.1006 216° Southwest 356 410 16,200 -2,220 Descending Washington Center
11:48PM 36.2039 -78.1431 219° Southwest 369 425 15,000 -2,280 Descending Washington Center
11:48PM 36.1678 -78.1753 216° Southwest 356 410 13,900 -2,340 Descending Washington Center
11:49PM 36.1458 -78.2336 245° Southwest 349 402 12,600 -1,920 Descending Washington Center
11:49PM 36.1197 -78.2739 231° Southwest 334 384 12,000 -1,920 Descending Washington Center
11:50PM 36.0956 -78.3269 241° Southwest 337 388 10,800 -2,160 Descending Washington Center
11:50PM 36.0739 -78.3675 237° Southwest 320 368 9,900 -1,500 Descending Washington Center
11:51PM 36.0539 -78.4206 245° Southwest 313 360 9,300 -1,140 Descending Washington Center
11:51PM 36.0322 -78.4558 233° Southwest 289 333 8,800 -1,500 Descending Washington Center
11:52PM 36.0100 -78.5039 240° Southwest 303 349 7,800 -1,560 Descending Washington Center
11:52PM 35.9864 -78.5364 228° Southwest 276 318 7,200 -1,680 Descending Washington Center
11:53PM 35.9564 -78.5711 223° Southwest 291 335 6,200 -1,800 Descending Washington Center
11:53PM 35.9283 -78.5983 218° Southwest 307 353 5,400 -1,860 Descending Washington Center
11:54PM 35.8983 -78.6331 223° Southwest 281 323 4,300 -1,620 Descending Washington Center
11:54PM 35.8622 -78.6625 213° Southwest 289 333 3,800 -720 Descending Washington Center
11:55PM 35.8386 -78.6872 220° Southwest 281 323 3,600 -660 Descending Washington Center
11:55PM 35.8128 -78.7194 225° Southwest 244 281 3,200 -420 Descending Washington Center
11:56PM 35.7756 -78.7819 234° Southwest 235 270 3,000 -240 Descending Washington Center
11:57PM 35.7842 -78.8514 279° West 205 236 2,800 -780 Descending Washington Center
11:58PM 35.8197 -78.8503 North 128 147 1,500 -960 Descending Washington Center
11:59PM 35.8456 -78.8206 43° Northeast 113 130 900 -600 Descending Washington Center
12:01AM 35.8667 -78.7833 349° North  Level FlightAware Approximate
12:08AM 35.8776 -78.7875 349° North  Level Estimated
12:09AM 35.8776 -78.7875 349° North  Level Estimated
12:10AM 35.8776 -78.7875 349° North  Level Estimated
12:11AM 35.8776 -78.7875 349° North  Level Estimated